sensor_id;sensor_type;location;lat;lon;timestamp;pressure;altitude;pressure_sealevel;temperature;humidity
66385;BME280;53426;55.872;37.462;2023-09-08T00:00:42;99614.41;;;12.00;66.12
66385;BME280;53426;55.872;37.462;2023-09-08T00:03:08;99606.56;;;11.98;66.50
66385;BME280;53426;55.872;37.462;2023-09-08T00:05:34;99604.75;;;11.99;65.50
66385;BME280;53426;55.872;37.462;2023-09-08T00:08:00;99583.03;;;11.84;66.20
66385;BME280;53426;55.872;37.462;2023-09-08T00:10:26;99601.25;;;11.98;65.71
66385;BME280;53426;55.872;37.462;2023-09-08T00:12:53;99603.19;;;11.96;66.03
66385;BME280;53426;55.872;37.462;2023-09-08T00:19:00;99591.44;;;11.89;65.77
66385;BME280;53426;55.872;37.462;2023-09-08T00:21:26;99557.16;;;11.67;66.35
66385;BME280;53426;55.872;37.462;2023-09-08T00:23:53;99594.09;;;11.89;66.39
66385;BME280;53426;55.872;37.462;2023-09-08T00:26:19;99593.97;;;11.91;66.03
66385;BME280;53426;55.872;37.462;2023-09-08T00:28:46;99594.81;;;11.91;65.71
66385;BME280;53426;55.872;37.462;2023-09-08T00:31:12;99593.84;;;11.92;65.72
66385;BME280;53426;55.872;37.462;2023-09-08T00:33:41;99598.19;;;11.93;65.92
66385;BME280;53426;55.872;37.462;2023-09-08T00:36:09;99595.22;;;11.96;65.41
66385;BME280;53426;55.872;37.462;2023-09-08T00:38:35;99590.91;;;11.95;65.31
66385;BME280;53426;55.872;37.462;2023-09-08T00:41:01;99595.94;;;11.98;65.76
66385;BME280;53426;55.872;37.462;2023-09-08T00:43:28;99565.31;;;11.85;65.82
66385;BME280;53426;55.872;37.462;2023-09-08T00:45:55;99593.56;;;11.95;66.21
66385;BME280;53426;55.872;37.462;2023-09-08T00:48:22;99564.75;;;11.81;65.98
66385;BME280;53426;55.872;37.462;2023-09-08T00:50:48;99553.38;;;11.69;66.21
66385;BME280;53426;55.872;37.462;2023-09-08T00:53:14;99574.84;;;11.87;66.03
66385;BME280;53426;55.872;37.462;2023-09-08T00:55:41;99572.72;;;11.81;65.85
66385;BME280;53426;55.872;37.462;2023-09-08T00:58:11;99592.16;;;11.91;66.00
66385;BME280;53426;55.872;37.462;2023-09-08T01:00:37;99576.47;;;11.79;66.55
66385;BME280;53426;55.872;37.462;2023-09-08T01:03:03;99555.06;;;11.70;66.64
66385;BME280;53426;55.872;37.462;2023-09-08T01:05:31;99583.75;;;11.86;66.41
66385;BME280;53426;55.872;37.462;2023-09-08T01:08:02;99563.16;;;11.69;66.58
66385;BME280;53426;55.872;37.462;2023-09-08T01:13:56;99582.78;;;11.87;66.53
66385;BME280;53426;55.872;37.462;2023-09-08T01:16:22;99580.81;;;11.80;66.71
66385;BME280;53426;55.872;37.462;2023-09-08T01:18:50;99577.63;;;11.86;66.49
66385;BME280;53426;55.872;37.462;2023-09-08T01:24:54;99578.47;;;11.86;67.67
66385;BME280;53426;55.872;37.462;2023-09-08T01:27:24;99584.59;;;11.77;67.85
66385;BME280;53426;55.872;37.462;2023-09-08T01:29:52;99572.38;;;11.65;69.33
66385;BME280;53426;55.872;37.462;2023-09-08T01:32:19;99569.09;;;11.52;70.02
66385;BME280;53426;55.872;37.462;2023-09-08T01:34:46;99560.34;;;11.30;70.74
66385;BME280;53426;55.872;37.462;2023-09-08T01:37:11;99543.84;;;11.17;71.41
66385;BME280;53426;55.872;37.462;2023-09-08T01:39:37;99570.97;;;11.30;73.20
66385;BME280;53426;55.872;37.462;2023-09-08T01:42:03;99568.59;;;11.27;72.93
66385;BME280;53426;55.872;37.462;2023-09-08T01:44:29;99547.56;;;11.05;72.11
66385;BME280;53426;55.872;37.462;2023-09-08T01:46:55;99571.19;;;11.18;72.65
66385;BME280;53426;55.872;37.462;2023-09-08T01:49:23;99569.97;;;11.22;73.73
66385;BME280;53426;55.872;37.462;2023-09-08T01:51:49;99559.75;;;11.17;74.01
66385;BME280;53426;55.872;37.462;2023-09-08T01:54:17;99556.50;;;11.14;74.73
66385;BME280;53426;55.872;37.462;2023-09-08T01:56:43;99564.16;;;11.07;74.24
66385;BME280;53426;55.872;37.462;2023-09-08T01:59:09;99524.84;;;10.82;75.24
66385;BME280;53426;55.872;37.462;2023-09-08T02:01:35;99548.19;;;10.98;74.62
66385;BME280;53426;55.872;37.462;2023-09-08T02:04:03;99541.22;;;10.97;75.00
66385;BME280;53426;55.872;37.462;2023-09-08T02:06:29;99524.59;;;10.85;74.54
66385;BME280;53426;55.872;37.462;2023-09-08T02:08:55;99541.22;;;10.97;75.50
66385;BME280;53426;55.872;37.462;2023-09-08T02:11:21;99514.94;;;10.84;76.27
66385;BME280;53426;55.872;37.462;2023-09-08T02:13:48;99533.16;;;10.98;75.35
66385;BME280;53426;55.872;37.462;2023-09-08T02:16:15;99505.84;;;10.77;75.11
66385;BME280;53426;55.872;37.462;2023-09-08T02:18:42;99525.59;;;10.94;75.94
66385;BME280;53426;55.872;37.462;2023-09-08T02:21:08;99515.28;;;10.90;75.57
66385;BME280;53426;55.872;37.462;2023-09-08T02:23:34;99487.81;;;10.71;75.65
66385;BME280;53426;55.872;37.462;2023-09-08T02:26:00;99512.03;;;10.87;75.79
66385;BME280;53426;55.872;37.462;2023-09-08T02:28:26;99515.00;;;10.94;75.23
66385;BME280;53426;55.872;37.462;2023-09-08T02:30:53;99510.53;;;10.94;75.24
66385;BME280;53426;55.872;37.462;2023-09-08T02:33:21;99512.75;;;10.89;75.59
66385;BME280;53426;55.872;37.462;2023-09-08T02:35:46;99503.84;;;10.90;75.42
66385;BME280;53426;55.872;37.462;2023-09-08T02:38:13;99510.25;;;10.97;75.90
66385;BME280;53426;55.872;37.462;2023-09-08T02:40:40;99512.66;;;11.00;75.39
66385;BME280;53426;55.872;37.462;2023-09-08T02:43:06;99512.53;;;11.02;75.40
66385;BME280;53426;55.872;37.462;2023-09-08T02:45:32;99504.00;;;10.98;75.46
66385;BME280;53426;55.872;37.462;2023-09-08T02:47:57;99507.63;;;10.97;75.32
66385;BME280;53426;55.872;37.462;2023-09-08T02:50:23;99496.34;;;10.95;75.26
66385;BME280;53426;55.872;37.462;2023-09-08T02:52:49;99464.13;;;10.69;76.10
66385;BME280;53426;55.872;37.462;2023-09-08T02:55:15;99470.31;;;10.79;76.12
66385;BME280;53426;55.872;37.462;2023-09-08T02:57:42;99483.63;;;10.89;75.72
66385;BME280;53426;55.872;37.462;2023-09-08T03:00:08;99503.03;;;10.99;76.25
66385;BME280;53426;55.872;37.462;2023-09-08T03:02:34;99495.81;;;11.01;75.26
66385;BME280;53426;55.872;37.462;2023-09-08T03:05:01;99483.78;;;10.97;75.57
66385;BME280;53426;55.872;37.462;2023-09-08T03:07:27;99452.63;;;10.80;75.68
66385;BME280;53426;55.872;37.462;2023-09-08T03:09:53;99493.84;;;11.03;75.80
66385;BME280;53426;55.872;37.462;2023-09-08T03:12:21;99496.25;;;11.06;76.23
66385;BME280;53426;55.872;37.462;2023-09-08T03:14:47;99470.81;;;10.94;76.44
66385;BME280;53426;55.872;37.462;2023-09-08T03:17:13;99493.19;;;11.11;76.33
66385;BME280;53426;55.872;37.462;2023-09-08T03:19:39;99470.28;;;11.00;76.91
66385;BME280;53426;55.872;37.462;2023-09-08T03:22:06;99484.53;;;11.09;75.96
66385;BME280;53426;55.872;37.462;2023-09-08T03:24:32;99486.09;;;11.11;75.87
66385;BME280;53426;55.872;37.462;2023-09-08T03:27:00;99484.69;;;11.07;75.18
66385;BME280;53426;55.872;37.462;2023-09-08T03:29:28;99477.72;;;11.16;75.45
66385;BME280;53426;55.872;37.462;2023-09-08T03:31:54;99484.88;;;11.25;75.32
66385;BME280;53426;55.872;37.462;2023-09-08T03:34:20;99457.50;;;11.15;74.88
66385;BME280;53426;55.872;37.462;2023-09-08T03:36:48;99445.50;;;11.11;74.72
66385;BME280;53426;55.872;37.462;2023-09-08T03:39:15;99485.59;;;11.37;74.46
66385;BME280;53426;55.872;37.462;2023-09-08T03:41:40;99453.66;;;11.28;73.95
66385;BME280;53426;55.872;37.462;2023-09-08T03:44:06;99482.59;;;11.51;74.12
66385;BME280;53426;55.872;37.462;2023-09-08T03:46:32;99452.94;;;11.36;74.16
66385;BME280;53426;55.872;37.462;2023-09-08T03:48:58;99446.69;;;11.37;73.81
66385;BME280;53426;55.872;37.462;2023-09-08T03:51:29;99445.16;;;11.35;73.15
66385;BME280;53426;55.872;37.462;2023-09-08T03:53:55;99473.94;;;11.49;73.10
66385;BME280;53426;55.872;37.462;2023-09-08T03:56:24;99409.38;;;11.19;72.89
66385;BME280;53426;55.872;37.462;2023-09-08T03:58:50;99470.88;;;11.63;73.61
66385;BME280;53426;55.872;37.462;2023-09-08T04:01:19;99466.00;;;11.68;72.98
66385;BME280;53426;55.872;37.462;2023-09-08T04:04:10;99463.25;;;11.79;72.42
66385;BME280;53426;55.872;37.462;2023-09-08T04:07:02;99465.75;;;11.90;71.83
66385;BME280;53426;55.872;37.462;2023-09-08T04:09:30;99470.09;;;11.91;71.53
66385;BME280;53426;55.872;37.462;2023-09-08T04:21:34;99478.22;;;12.19;69.29
66385;BME280;53426;55.872;37.462;2023-09-08T04:24:00;99400.28;;;11.91;68.91
66385;BME280;53426;55.872;37.462;2023-09-08T04:26:27;99446.63;;;12.25;68.30
66385;BME280;53426;55.872;37.462;2023-09-08T04:28:53;99408.91;;;12.12;67.40
66385;BME280;53426;55.872;37.462;2023-09-08T04:31:19;99445.59;;;12.55;67.29
66385;BME280;53426;55.872;37.462;2023-09-08T04:33:47;99451.00;;;13.10;65.71
66385;BME280;53426;55.872;37.462;2023-09-08T04:36:16;99439.28;;;13.12;64.41
66385;BME280;53426;55.872;37.462;2023-09-08T04:38:42;99443.75;;;13.12;64.43
66385;BME280;53426;55.872;37.462;2023-09-08T04:41:09;99443.91;;;13.00;65.08
66385;BME280;53426;55.872;37.462;2023-09-08T04:43:35;99448.03;;;12.85;64.98
66385;BME280;53426;55.872;37.462;2023-09-08T04:46:02;99421.53;;;12.56;65.99
66385;BME280;53426;55.872;37.462;2023-09-08T04:48:31;99382.91;;;12.25;65.75
66385;BME280;53426;55.872;37.462;2023-09-08T04:50:58;99405.16;;;12.14;66.27
66385;BME280;53426;55.872;37.462;2023-09-08T04:53:24;99413.53;;;12.20;65.66
66385;BME280;53426;55.872;37.462;2023-09-08T04:56:03;99435.41;;;12.50;66.43
66385;BME280;53426;55.872;37.462;2023-09-08T05:01:27;99276.03;;;11.77;65.27
66385;BME280;53426;55.872;37.462;2023-09-08T05:03:56;99427.44;;;12.87;64.48
66385;BME280;53426;55.872;37.462;2023-09-08T05:06:22;99425.22;;;12.92;63.43
66385;BME280;53426;55.872;37.462;2023-09-08T05:12:53;99372.34;;;12.89;62.59
66385;BME280;53426;55.872;37.462;2023-09-08T05:15:20;99427.56;;;13.50;63.26
66385;BME280;53426;55.872;37.462;2023-09-08T05:17:51;99387.19;;;13.37;61.71
66385;BME280;53426;55.872;37.462;2023-09-08T05:20:19;99394.50;;;13.35;61.85
66385;BME280;53426;55.872;37.462;2023-09-08T05:22:45;99413.16;;;13.53;61.97
66385;BME280;53426;55.872;37.462;2023-09-08T05:25:12;99409.63;;;14.23;60.60
66385;BME280;53426;55.872;37.462;2023-09-08T05:27:38;99359.03;;;14.49;58.29
66385;BME280;53426;55.872;37.462;2023-09-08T05:30:07;99380.44;;;14.65;57.81
66385;BME280;53426;55.872;37.462;2023-09-08T05:32:42;99404.84;;;14.52;58.51
66385;BME280;53426;55.872;37.462;2023-09-08T05:35:25;99401.41;;;14.60;58.44
66385;BME280;53426;55.872;37.462;2023-09-08T05:40:39;99281.88;;;15.47;53.10
66385;BME280;53426;55.872;37.462;2023-09-08T05:46:22;99321.38;;;15.36;53.20
66385;BME280;53426;55.872;37.462;2023-09-08T05:48:48;99342.97;;;15.08;54.73
66385;BME280;53426;55.872;37.462;2023-09-08T05:51:14;99348.69;;;14.72;55.74
66385;BME280;53426;55.872;37.462;2023-09-08T05:53:41;99389.44;;;14.64;56.78
66385;BME280;53426;55.872;37.462;2023-09-08T05:56:14;99355.19;;;14.77;55.91
66385;BME280;53426;55.872;37.462;2023-09-08T05:58:42;99351.91;;;15.41;53.62
66385;BME280;53426;55.872;37.462;2023-09-08T06:01:08;99377.16;;;15.87;53.49
66385;BME280;53426;55.872;37.462;2023-09-08T06:03:35;99343.09;;;16.30;52.88
66385;BME280;53426;55.872;37.462;2023-09-08T06:06:01;99354.72;;;16.61;51.35
66385;BME280;53426;55.872;37.462;2023-09-08T06:08:27;99312.19;;;16.36;50.46
66385;BME280;53426;55.872;37.462;2023-09-08T06:10:53;99343.56;;;16.33;51.05
66385;BME280;53426;55.872;37.462;2023-09-08T06:13:20;99309.72;;;15.94;51.12
66385;BME280;53426;55.872;37.462;2023-09-08T06:15:49;99302.25;;;15.57;51.72
66385;BME280;53426;55.872;37.462;2023-09-08T06:18:15;99330.09;;;15.95;51.55
66385;BME280;53426;55.872;37.462;2023-09-08T06:20:45;99338.84;;;16.52;50.54
66385;BME280;53426;55.872;37.462;2023-09-08T06:23:12;99350.59;;;18.20;46.85
66385;BME280;53426;55.872;37.462;2023-09-08T06:25:38;99348.31;;;19.19;44.68
66385;BME280;53426;55.872;37.462;2023-09-08T06:28:05;99345.47;;;18.62;45.05
66385;BME280;53426;55.872;37.462;2023-09-08T06:30:31;99346.91;;;17.83;45.97
66385;BME280;53426;55.872;37.462;2023-09-08T06:32:58;99343.72;;;17.34;47.30
66385;BME280;53426;55.872;37.462;2023-09-08T06:35:25;99355.19;;;16.73;48.42
66385;BME280;53426;55.872;37.462;2023-09-08T06:37:51;99299.84;;;16.18;49.33
66385;BME280;53426;55.872;37.462;2023-09-08T06:40:17;99283.56;;;15.81;50.04
66385;BME280;53426;55.872;37.462;2023-09-08T06:42:47;99261.03;;;15.43;49.92
66385;BME280;53426;55.872;37.462;2023-09-08T06:45:33;99325.25;;;15.82;50.37
66385;BME280;53426;55.872;37.462;2023-09-08T06:47:59;99273.50;;;15.50;50.30
66385;BME280;53426;55.872;37.462;2023-09-08T06:50:27;99312.41;;;16.02;50.11
66385;BME280;53426;55.872;37.462;2023-09-08T06:52:54;99331.84;;;16.43;49.32
66385;BME280;53426;55.872;37.462;2023-09-08T06:55:20;99266.59;;;16.76;48.27
66385;BME280;53426;55.872;37.462;2023-09-08T06:57:48;99293.28;;;18.94;43.93
66385;BME280;53426;55.872;37.462;2023-09-08T07:00:15;99293.59;;;20.33;40.31
66385;BME280;53426;55.872;37.462;2023-09-08T07:02:45;99303.00;;;21.33;38.62
66385;BME280;53426;55.872;37.462;2023-09-08T07:05:11;99298.03;;;20.95;38.47
66385;BME280;53426;55.872;37.462;2023-09-08T07:07:37;99281.09;;;21.01;37.82
66385;BME280;53426;55.872;37.462;2023-09-08T07:10:04;99291.78;;;21.36;37.61
66385;BME280;53426;55.872;37.462;2023-09-08T07:12:30;99286.81;;;20.85;37.94
66385;BME280;53426;55.872;37.462;2023-09-08T07:14:57;99288.88;;;20.14;39.55
66385;BME280;53426;55.872;37.462;2023-09-08T07:17:23;99278.88;;;19.74;40.41
66385;BME280;53426;55.872;37.462;2023-09-08T07:19:49;99272.94;;;19.21;40.75
66385;BME280;53426;55.872;37.462;2023-09-08T07:22:16;99224.50;;;19.08;40.86
66385;BME280;53426;55.872;37.462;2023-09-08T07:24:42;99260.78;;;19.61;40.16
66385;BME280;53426;55.872;37.462;2023-09-08T07:27:08;99273.34;;;20.10;39.61
66385;BME280;53426;55.872;37.462;2023-09-08T07:29:34;99266.75;;;21.55;37.27
66385;BME280;53426;55.872;37.462;2023-09-08T07:32:00;99251.97;;;22.43;35.45
66385;BME280;53426;55.872;37.462;2023-09-08T07:34:26;99250.38;;;23.24;33.81
66385;BME280;53426;55.872;37.462;2023-09-08T07:36:52;99247.00;;;22.98;33.94
66385;BME280;53426;55.872;37.462;2023-09-08T07:39:18;99246.84;;;22.15;34.89
66385;BME280;53426;55.872;37.462;2023-09-08T07:41:44;99237.06;;;21.15;36.77
66385;BME280;53426;55.872;37.462;2023-09-08T07:44:12;99229.88;;;19.72;38.48
66385;BME280;53426;55.872;37.462;2023-09-08T07:46:39;99246.31;;;19.19;39.35
66385;BME280;53426;55.872;37.462;2023-09-08T07:49:05;99238.38;;;18.75;40.56
66385;BME280;53426;55.872;37.462;2023-09-08T07:51:31;99243.09;;;18.73;40.95
66385;BME280;53426;55.872;37.462;2023-09-08T07:53:56;99230.03;;;18.85;41.58
66385;BME280;53426;55.872;37.462;2023-09-08T07:56:22;99235.09;;;19.16;40.59
66385;BME280;53426;55.872;37.462;2023-09-08T07:58:48;99225.94;;;20.02;38.98
66385;BME280;53426;55.872;37.462;2023-09-08T08:01:14;99228.19;;;21.94;35.81
66385;BME280;53426;55.872;37.462;2023-09-08T08:03:41;99194.19;;;22.13;34.93
66385;BME280;53426;55.872;37.462;2023-09-08T08:06:07;99224.53;;;22.59;34.32
66385;BME280;53426;55.872;37.462;2023-09-08T08:08:34;99215.25;;;22.42;35.14
66385;BME280;53426;55.872;37.462;2023-09-08T08:11:15;99211.66;;;23.06;34.71
66385;BME280;53426;55.872;37.462;2023-09-08T08:13:41;99194.63;;;22.61;34.05
66385;BME280;53426;55.872;37.462;2023-09-08T08:16:07;99196.97;;;23.26;33.50
66385;BME280;53426;55.872;37.462;2023-09-08T08:18:33;99194.28;;;24.01;32.63
66385;BME280;53426;55.872;37.462;2023-09-08T08:20:59;99201.56;;;24.25;31.41
66385;BME280;53426;55.872;37.462;2023-09-08T08:23:26;99190.84;;;23.13;32.96
66385;BME280;53426;55.872;37.462;2023-09-08T08:25:52;99184.88;;;21.56;35.92
66385;BME280;53426;55.872;37.462;2023-09-08T08:28:18;99162.69;;;20.40;37.55
66385;BME280;53426;55.872;37.462;2023-09-08T08:30:43;99181.13;;;20.43;37.72
66385;BME280;53426;55.872;37.462;2023-09-08T08:33:09;99184.06;;;20.55;38.74
66385;BME280;53426;55.872;37.462;2023-09-08T08:35:36;99180.47;;;20.89;38.14
66385;BME280;53426;55.872;37.462;2023-09-08T08:38:04;99175.28;;;20.33;39.42
66385;BME280;53426;55.872;37.462;2023-09-08T08:40:32;99164.25;;;19.59;40.29
66385;BME280;53426;55.872;37.462;2023-09-08T08:42:59;99154.44;;;20.08;39.70
66385;BME280;53426;55.872;37.462;2023-09-08T08:45:26;99158.31;;;20.33;39.15
66385;BME280;53426;55.872;37.462;2023-09-08T08:47:53;99170.53;;;19.67;40.82
66385;BME280;53426;55.872;37.462;2023-09-08T08:50:20;99170.81;;;19.29;41.51
66385;BME280;53426;55.872;37.462;2023-09-08T08:52:46;99166.19;;;18.59;43.19
66385;BME280;53426;55.872;37.462;2023-09-08T08:55:13;99178.88;;;18.07;44.93
66385;BME280;53426;55.872;37.462;2023-09-08T08:57:41;99172.16;;;18.25;44.92
66385;BME280;53426;55.872;37.462;2023-09-08T09:00:10;99122.59;;;18.72;44.32
66385;BME280;53426;55.872;37.462;2023-09-08T09:02:40;99126.03;;;18.66;44.19
66385;BME280;53426;55.872;37.462;2023-09-08T09:05:12;99138.94;;;18.77;45.01
66385;BME280;53426;55.872;37.462;2023-09-08T09:07:42;99151.50;;;18.40;45.04
66385;BME280;53426;55.872;37.462;2023-09-08T09:10:10;99145.16;;;18.27;45.63
66385;BME280;53426;55.872;37.462;2023-09-08T09:12:37;99119.00;;;18.29;44.81
66385;BME280;53426;55.872;37.462;2023-09-08T09:15:06;99143.97;;;18.51;45.25
66385;BME280;53426;55.872;37.462;2023-09-08T09:17:34;99126.34;;;18.56;44.73
66385;BME280;53426;55.872;37.462;2023-09-08T09:20:17;99087.66;;;19.36;43.40
66385;BME280;53426;55.872;37.462;2023-09-08T09:22:47;99130.28;;;19.45;43.37
66385;BME280;53426;55.872;37.462;2023-09-08T09:25:24;99111.22;;;19.12;44.63
66385;BME280;53426;55.872;37.462;2023-09-08T09:27:55;99116.72;;;18.62;44.72
66385;BME280;53426;55.872;37.462;2023-09-08T09:30:22;99113.53;;;18.22;45.69
66385;BME280;53426;55.872;37.462;2023-09-08T09:32:57;99121.53;;;18.01;46.00
66385;BME280;53426;55.872;37.462;2023-09-08T09:35:42;99122.56;;;18.00;46.23
66385;BME280;53426;55.872;37.462;2023-09-08T09:38:09;99129.56;;;17.86;47.21
66385;BME280;53426;55.872;37.462;2023-09-08T09:40:35;99126.44;;;17.68;47.19
66385;BME280;53426;55.872;37.462;2023-09-08T09:43:01;99108.94;;;17.43;47.79
66385;BME280;53426;55.872;37.462;2023-09-08T09:45:30;99126.63;;;17.29;48.30
66385;BME280;53426;55.872;37.462;2023-09-08T09:47:56;99130.38;;;17.05;49.81
66385;BME280;53426;55.872;37.462;2023-09-08T09:50:33;99097.28;;;16.84;49.97
66385;BME280;53426;55.872;37.462;2023-09-08T09:53:16;99078.94;;;16.50;49.73
66385;BME280;53426;55.872;37.462;2023-09-08T09:58:39;99149.28;;;16.19;52.06
66385;BME280;53426;55.872;37.462;2023-09-08T10:01:07;99135.84;;;15.97;52.66
66385;BME280;53426;55.872;37.462;2023-09-08T10:03:58;99131.03;;;15.92;53.56
66385;BME280;53426;55.872;37.462;2023-09-08T10:06:35;99143.75;;;15.74;53.66
66385;BME280;53426;55.872;37.462;2023-09-08T10:09:03;99052.97;;;15.27;54.19
66385;BME280;53426;55.872;37.462;2023-09-08T10:12:12;99130.91;;;15.69;53.72
66385;BME280;53426;55.872;37.462;2023-09-08T10:14:41;99132.78;;;15.53;54.48
66385;BME280;53426;55.872;37.462;2023-09-08T10:17:12;99125.78;;;15.60;54.71
66385;BME280;53426;55.872;37.462;2023-09-08T10:19:44;99111.34;;;15.85;54.11
66385;BME280;53426;55.872;37.462;2023-09-08T10:22:12;99146.91;;;16.24;53.40
66385;BME280;53426;55.872;37.462;2023-09-08T10:24:42;99137.59;;;16.43;53.46
66385;BME280;53426;55.872;37.462;2023-09-08T10:27:12;99120.09;;;16.41;52.48
66385;BME280;53426;55.872;37.462;2023-09-08T10:29:42;99126.88;;;16.51;52.15
66385;BME280;53426;55.872;37.462;2023-09-08T10:32:09;99113.81;;;16.56;52.29
66385;BME280;53426;55.872;37.462;2023-09-08T10:34:36;99149.66;;;16.93;53.14
66385;BME280;53426;55.872;37.462;2023-09-08T10:37:03;99093.47;;;16.78;50.54
66385;BME280;53426;55.872;37.462;2023-09-08T10:39:42;99089.22;;;17.06;49.66
66385;BME280;53426;55.872;37.462;2023-09-08T10:47:30;99116.56;;;17.17;48.94
66385;BME280;53426;55.872;37.462;2023-09-08T10:49:56;99128.28;;;16.70;50.51
66385;BME280;53426;55.872;37.462;2023-09-08T10:52:23;99133.75;;;16.46;51.86
66385;BME280;53426;55.872;37.462;2023-09-08T10:54:52;99110.03;;;16.20;52.08
66385;BME280;53426;55.872;37.462;2023-09-08T10:57:20;99133.25;;;16.11;52.62
66385;BME280;53426;55.872;37.462;2023-09-08T11:00:03;99121.75;;;16.11;52.79
66385;BME280;53426;55.872;37.462;2023-09-08T11:05:11;99138.50;;;15.97;52.46
66385;BME280;53426;55.872;37.462;2023-09-08T11:07:40;99138.19;;;15.92;53.15
66385;BME280;53426;55.872;37.462;2023-09-08T11:10:07;99142.34;;;15.94;54.11
66385;BME280;53426;55.872;37.462;2023-09-08T11:12:33;99139.34;;;15.97;54.57
66385;BME280;53426;55.872;37.462;2023-09-08T11:15:05;99133.50;;;15.94;53.43
66385;BME280;53426;55.872;37.462;2023-09-08T11:17:34;99144.94;;;15.63;55.13
66385;BME280;53426;55.872;37.462;2023-09-08T11:20:01;99166.97;;;15.25;57.35
66385;BME280;53426;55.872;37.462;2023-09-08T11:22:34;99152.31;;;15.04;58.66
66385;BME280;53426;55.872;37.462;2023-09-08T11:25:01;99141.97;;;14.85;58.89
66385;BME280;53426;55.872;37.462;2023-09-08T11:27:31;99136.97;;;14.66;59.59
66385;BME280;53426;55.872;37.462;2023-09-08T11:29:57;99156.94;;;14.70;60.86
66385;BME280;53426;55.872;37.462;2023-09-08T11:32:24;99157.13;;;14.77;61.32
66385;BME280;53426;55.872;37.462;2023-09-08T11:34:50;99164.28;;;15.00;61.80
66385;BME280;53426;55.872;37.462;2023-09-08T11:37:18;99160.13;;;15.22;60.57
66385;BME280;53426;55.872;37.462;2023-09-08T11:39:45;99158.56;;;15.84;58.74
66385;BME280;53426;55.872;37.462;2023-09-08T11:42:12;99129.44;;;16.14;57.81
66385;BME280;53426;55.872;37.462;2023-09-08T11:44:40;99149.41;;;16.57;56.18
66385;BME280;53426;55.872;37.462;2023-09-08T11:47:07;99144.63;;;16.75;55.35
66385;BME280;53426;55.872;37.462;2023-09-08T11:49:41;99151.22;;;16.87;54.64
66385;BME280;53426;55.872;37.462;2023-09-08T11:52:08;99121.50;;;16.82;54.02
66385;BME280;53426;55.872;37.462;2023-09-08T11:54:37;99153.91;;;16.87;54.76
66385;BME280;53426;55.872;37.462;2023-09-08T11:57:05;99137.00;;;16.87;53.88
66385;BME280;53426;55.872;37.462;2023-09-08T11:59:34;99146.69;;;17.10;52.62
66385;BME280;53426;55.872;37.462;2023-09-08T12:02:00;99132.78;;;17.15;52.51
66385;BME280;53426;55.872;37.462;2023-09-08T12:04:27;99147.31;;;17.35;52.04
66385;BME280;53426;55.872;37.462;2023-09-08T12:06:54;99153.94;;;17.62;51.41
66385;BME280;53426;55.872;37.462;2023-09-08T12:09:22;99140.44;;;17.55;50.53
66385;BME280;53426;55.872;37.462;2023-09-08T12:11:49;99130.91;;;17.53;50.75
66385;BME280;53426;55.872;37.462;2023-09-08T12:14:16;99007.38;;;16.83;50.48
66385;BME280;53426;55.872;37.462;2023-09-08T12:16:42;99121.69;;;17.55;50.78
66385;BME280;53426;55.872;37.462;2023-09-08T12:19:28;99143.00;;;17.49;50.97
66385;BME280;53426;55.872;37.462;2023-09-08T12:21:57;99143.06;;;17.03;52.52
66385;BME280;53426;55.872;37.462;2023-09-08T12:27:15;99130.19;;;16.30;53.12
66385;BME280;53426;55.872;37.462;2023-09-08T12:30:02;99146.06;;;16.24;53.67
66385;BME280;53426;55.872;37.462;2023-09-08T12:32:33;99150.03;;;15.89;54.34
66385;BME280;53426;55.872;37.462;2023-09-08T12:35:02;99142.59;;;15.60;54.62
66385;BME280;53426;55.872;37.462;2023-09-08T12:37:33;99152.47;;;15.52;54.82
66385;BME280;53426;55.872;37.462;2023-09-08T12:39:59;99157.44;;;15.38;54.74
66385;BME280;53426;55.872;37.462;2023-09-08T12:42:27;99165.44;;;15.38;54.74
66385;BME280;53426;55.872;37.462;2023-09-08T12:44:55;99165.97;;;15.34;54.60
66385;BME280;53426;55.872;37.462;2023-09-08T12:47:21;99174.63;;;15.12;54.88
66385;BME280;53426;55.872;37.462;2023-09-08T12:49:47;99151.28;;;15.05;54.41
66385;BME280;53426;55.872;37.462;2023-09-08T12:52:13;99170.81;;;14.98;54.42
66385;BME280;53426;55.872;37.462;2023-09-08T12:54:39;99171.81;;;14.97;54.40
66385;BME280;53426;55.872;37.462;2023-09-08T12:57:05;99163.81;;;14.89;53.82
66385;BME280;53426;55.872;37.462;2023-09-08T12:59:30;99183.66;;;14.94;53.75
66385;BME280;53426;55.872;37.462;2023-09-08T13:01:56;99182.63;;;14.95;53.43
66385;BME280;53426;55.872;37.462;2023-09-08T13:04:24;99188.78;;;14.96;54.32
66385;BME280;53426;55.872;37.462;2023-09-08T13:06:50;99189.81;;;15.03;54.15
66385;BME280;53426;55.872;37.462;2023-09-08T13:09:16;99199.97;;;15.07;53.95
66385;BME280;53426;55.872;37.462;2023-09-08T13:11:42;99181.63;;;14.96;53.62
66385;BME280;53426;55.872;37.462;2023-09-08T13:14:08;99197.78;;;14.95;52.99
66385;BME280;53426;55.872;37.462;2023-09-08T13:16:35;99194.97;;;14.88;54.38
66385;BME280;53426;55.872;37.462;2023-09-08T13:19:01;99193.28;;;14.95;52.19
66385;BME280;53426;55.872;37.462;2023-09-08T13:21:26;99193.47;;;15.02;51.84
66385;BME280;53426;55.872;37.462;2023-09-08T13:23:52;99203.00;;;15.04;51.66
66385;BME280;53426;55.872;37.462;2023-09-08T13:26:18;99198.81;;;15.10;51.72
66385;BME280;53426;55.872;37.462;2023-09-08T13:28:44;99206.00;;;15.10;52.54
66385;BME280;53426;55.872;37.462;2023-09-08T13:31:10;99193.97;;;14.97;50.99
66385;BME280;53426;55.872;37.462;2023-09-08T13:33:36;99211.13;;;15.03;51.83
66385;BME280;53426;55.872;37.462;2023-09-08T13:36:01;99210.16;;;15.04;52.08
66385;BME280;53426;55.872;37.462;2023-09-08T13:38:27;99209.13;;;14.97;51.52
66385;BME280;53426;55.872;37.462;2023-09-08T13:40:53;99209.47;;;14.94;50.93